Terminal Aerodrome Forecast
Issued by NWS

Home | Current Version | Previous Version | Text Only | Print | Product List | Glossary On
Versions: 1 2 3 4 5 6 7 8 9 10 11 12 13 14 15 16 17 18 19 20 21 22 23 24 25 26 27 28 29 30 31 32 33 34 35 36 37 38 39 40
000
FTUS45 KSLC 212048 AAA
TAFEVW
TAF AMD
KEVW 212048Z 2121/2218 26012G20KT 1SM -SN BR BKN020 OVC040
     FM220100 25011KT P6SM SCT020 BKN040
     FM220600 22010KT P6SM SCT040 BKN080
     FM221200 14006KT 2SM BR SCT010 BKN050=

USA.gov is the U.S. government's official web portal to all federal, state and local government web resources and services.